Time;durP1;ratioP1;P1;durP2;ratioP2;P2;SDS_P1;SDS_P2;PMS_P1;PMS_P2;Temp;Humidity;BMP_temperature;BMP_pressure;BME280_temperature;BME280_humidity;BME280_pressure;Samples;Min_cycle;Max_cycle;Signal;HPM_P1;HPM_P2
2023/12/17 00:00:39;;;;;;;25.02;22.48;;;;;;;11.14;100.00;103721.81;5258587;28;20032;-77
2023/12/17 00:03:11;;;;;;;25.95;23.20;;;;;;;11.15;100.00;103715.63;5267101;28;20420;-77
2023/12/17 00:05:42;;;;;;;25.85;22.73;;;;;;;11.15;100.00;103716.47;5270557;28;20032;-77
2023/12/17 00:08:19;;;;;;;25.23;22.63;;;;;;;11.18;100.00;103718.13;5265855;28;20031;-77
2023/12/17 00:10:52;;;;;;;24.88;22.48;;;;;;;11.15;100.00;103705.13;5264310;28;20025;-77
2023/12/17 00:13:24;;;;;;;25.95;23.42;;;;;;;11.22;100.00;103713.59;5267767;28;20029;-77
2023/12/17 00:15:56;;;;;;;25.23;22.63;;;;;;;11.00;100.00;103705.75;5270257;28;20041;-77
2023/12/17 00:18:28;;;;;;;25.67;22.98;;;;;;;11.18;100.00;103712.88;5266821;28;20020;-77
2023/12/17 00:21:00;;;;;;;25.20;22.77;;;;;;;11.22;100.00;103705.75;5269168;28;20095;-77
2023/12/17 00:23:32;;;;;;;25.48;22.73;;;;;;;11.18;100.00;103700.63;5265529;28;20037;-77
2023/12/17 00:26:04;;;;;;;25.65;23.02;;;;;;;11.21;100.00;103694.34;5267924;28;20048;-77
2023/12/17 00:28:36;;;;;;;25.70;23.10;;;;;;;11.17;100.00;103692.78;5258992;28;20045;-77
2023/12/17 00:31:08;;;;;;;25.63;23.13;;;;;;;11.20;100.00;103695.28;5270059;28;20029;-77
2023/12/17 00:33:40;;;;;;;24.13;21.60;;;;;;;11.26;100.00;103692.41;5264501;28;20024;-77
2023/12/17 00:36:13;;;;;;;24.25;21.80;;;;;;;11.24;100.00;103689.00;5264398;28;20055;-77
2023/12/17 00:38:45;;;;;;;25.38;22.92;;;;;;;11.23;100.00;103689.06;5259944;28;20111;-77
2023/12/17 00:41:16;;;;;;;24.52;22.13;;;;;;;11.23;100.00;103686.44;5266983;28;20028;-77
2023/12/17 00:43:48;;;;;;;24.75;22.20;;;;;;;11.20;100.00;103676.91;5259677;28;20025;-77
2023/12/17 00:46:20;;;;;;;25.05;22.42;;;;;;;11.20;100.00;103683.00;5260474;28;20039;-77
2023/12/17 00:48:52;;;;;;;25.85;23.25;;;;;;;11.20;100.00;103684.78;5265503;28;20080;-77
2023/12/17 00:51:24;;;;;;;24.67;22.13;;;;;;;11.20;100.00;103684.78;5272200;28;20029;-77
2023/12/17 00:53:56;;;;;;;26.30;23.70;;;;;;;11.17;100.00;103683.16;5265235;28;20035;-77
2023/12/17 00:56:29;;;;;;;26.67;23.88;;;;;;;11.20;100.00;103684.78;5277114;28;20041;-77
2023/12/17 00:59:01;;;;;;;24.85;22.23;;;;;;;11.21;100.00;103689.09;5273227;28;20033;-77
2023/12/17 01:01:33;;;;;;;25.15;22.40;;;;;;;11.22;100.00;103684.75;5270106;28;20035;-77
2023/12/17 01:04:05;;;;;;;24.77;21.60;;;;;;;11.23;100.00;103681.19;5270474;28;20029;-77
2023/12/17 01:06:37;;;;;;;24.90;22.38;;;;;;;11.23;100.00;103668.91;5268901;28;20035;-77
2023/12/17 01:09:10;;;;;;;25.42;22.80;;;;;;;11.15;100.00;103652.66;5268939;28;20035;-77
2023/12/17 01:11:42;;;;;;;24.55;22.05;;;;;;;11.21;100.00;103655.00;5270269;28;20047;-77
2023/12/17 01:14:14;;;;;;;25.02;22.25;;;;;;;11.21;100.00;103657.63;5273156;28;20024;-77
2023/12/17 01:16:46;;;;;;;29.05;23.67;;;;;;;11.20;100.00;103656.78;5266584;28;20032;-77
2023/12/17 01:19:18;;;;;;;27.10;24.13;;;;;;;11.22;100.00;103655.88;5261637;28;20029;-77
2023/12/17 01:21:50;;;;;;;26.38;23.58;;;;;;;11.18;100.00;103655.16;5271737;28;20037;-77
2023/12/17 01:24:21;;;;;;;27.23;23.55;;;;;;;11.18;100.00;103657.78;5263249;28;20029;-77
2023/12/17 01:26:53;;;;;;;27.05;24.23;;;;;;;11.15;100.00;103647.41;5263123;28;20049;-77
2023/12/17 01:29:25;;;;;;;26.83;24.02;;;;;;;11.16;100.00;103655.19;5273563;28;20083;-77
2023/12/17 01:31:57;;;;;;;27.52;24.52;;;;;;;11.13;100.00;103657.09;5264015;28;20043;-77
2023/12/17 01:34:29;;;;;;;26.13;23.17;;;;;;;11.13;100.00;103668.44;5270801;28;20039;-77
2023/12/17 01:37:01;;;;;;;26.60;23.73;;;;;;;11.15;100.00;103674.50;5264634;28;20021;-77
2023/12/17 01:39:33;;;;;;;25.95;23.25;;;;;;;11.14;100.00;103674.56;5270830;28;20036;-77
2023/12/17 01:42:05;;;;;;;24.85;22.25;;;;;;;11.18;100.00;103676.16;5264879;28;20043;-77
2023/12/17 01:44:37;;;;;;;24.25;21.85;;;;;;;11.18;100.00;103669.13;5265918;28;20040;-77
2023/12/17 01:47:09;;;;;;;22.95;20.50;;;;;;;11.17;100.00;103679.66;5264193;28;20033;-77
2023/12/17 01:49:41;;;;;;;23.63;20.85;;;;;;;11.26;100.00;103681.91;5260424;28;20049;-77
2023/12/17 01:52:13;;;;;;;23.45;21.13;;;;;;;11.18;100.00;103677.00;5269795;28;20086;-77
2023/12/17 01:54:46;;;;;;;22.93;20.63;;;;;;;11.22;100.00;103680.34;5267068;28;20040;-77
2023/12/17 01:57:17;;;;;;;24.10;21.60;;;;;;;11.22;100.00;103672.47;5265901;28;20413;-77
2023/12/17 01:59:50;;;;;;;22.45;20.15;;;;;;;11.20;100.00;103679.53;5260515;28;20028;-77
2023/12/17 02:02:22;;;;;;;24.23;21.77;;;;;;;11.22;100.00;103680.34;5274201;28;20394;-77
2023/12/17 02:04:55;;;;;;;23.15;20.70;;;;;;;11.20;100.00;103687.41;5267882;28;20258;-77
2023/12/17 02:07:27;;;;;;;22.27;19.92;;;;;;;11.23;100.00;103684.66;5268438;28;20039;-77
2023/12/17 02:09:58;;;;;;;21.98;19.77;;;;;;;11.20;100.00;103687.41;5272010;28;20036;-77
2023/12/17 02:12:30;;;;;;;23.92;21.45;;;;;;;11.23;100.00;103689.91;5272614;28;20037;-77
2023/12/17 02:15:02;;;;;;;23.00;20.60;;;;;;;11.23;100.00;103695.16;5270572;28;20050;-77
2023/12/17 02:17:34;;;;;;;22.33;19.95;;;;;;;11.23;100.00;103687.28;5267273;28;20029;-77
2023/12/17 02:20:07;;;;;;;22.83;20.52;;;;;;;11.26;100.00;103678.44;5263364;28;20115;-77
2023/12/17 02:22:39;;;;;;;22.80;20.45;;;;;;;11.27;100.00;103683.63;5272508;28;20033;-77
2023/12/17 02:25:11;;;;;;;22.75;20.45;;;;;;;11.25;100.00;103685.47;5259978;28;20036;-77
2023/12/17 02:27:43;;;;;;;22.17;19.88;;;;;;;11.24;100.00;103680.25;5265117;28;20041;-77
2023/12/17 02:30:15;;;;;;;22.00;19.85;;;;;;;11.30;100.00;103672.16;5268423;28;20031;-77
2023/12/17 02:32:47;;;;;;;23.23;20.73;;;;;;;11.28;100.00;103674.81;5268190;28;20401;-77
2023/12/17 02:35:21;;;;;;;23.42;20.63;;;;;;;11.21;100.00;103655.00;5273408;28;20013;-77
2023/12/17 02:37:53;;;;;;;24.73;21.85;;;;;;;11.28;100.00;103664.31;5270539;28;20031;-77
2023/12/17 02:40:25;;;;;;;23.10;20.30;;;;;;;11.28;100.00;103669.56;5263227;28;20036;-77
2023/12/17 02:42:57;;;;;;;21.48;19.30;;;;;;;11.29;100.00;103676.53;5274347;28;20481;-77
2023/12/17 02:45:29;;;;;;;27.67;23.00;;;;;;;11.32;100.00;103673.75;5260395;28;20608;-77
2023/12/17 02:48:01;;;;;;;22.17;19.85;;;;;;;11.19;100.00;103662.09;5262283;28;20029;-77
2023/12/17 02:50:33;;;;;;;22.88;20.48;;;;;;;11.19;100.00;103676.06;5260553;28;20063;-77
2023/12/17 02:53:05;;;;;;;22.88;20.10;;;;;;;11.18;100.00;103674.38;5269743;28;20024;-77
2023/12/17 02:55:36;;;;;;;22.92;20.52;;;;;;;11.17;100.00;103670.06;5266218;28;20043;-77
2023/12/17 02:58:08;;;;;;;22.73;19.48;;;;;;;11.17;100.00;103670.06;5265900;28;20051;-77
2023/12/17 03:00:40;;;;;;;25.52;20.38;;;;;;;11.12;100.00;103658.88;5262724;28;20048;-77
2023/12/17 03:03:12;;;;;;;21.58;19.30;;;;;;;11.17;100.00;103672.69;5261284;28;20028;-77
2023/12/17 03:05:44;;;;;;;23.35;18.10;;;;;;;11.16;100.00;103665.69;5266035;28;20474;-77
2023/12/17 03:08:16;;;;;;;20.45;17.48;;;;;;;11.19;100.00;103669.97;5265761;28;20059;-77
2023/12/17 03:10:48;;;;;;;19.75;16.88;;;;;;;11.19;100.00;103668.19;5269012;28;20028;-77
2023/12/17 03:13:20;;;;;;;19.27;17.27;;;;;;;11.16;100.00;103656.97;5266624;28;20040;-77
2023/12/17 03:15:51;;;;;;;19.52;16.35;;;;;;;11.15;100.00;103648.25;5268889;28;20029;-77
2023/12/17 03:18:23;;;;;;;19.77;15.85;;;;;;;11.15;100.00;103658.75;5263644;28;20466;-77
2023/12/17 03:20:55;;;;;;;16.77;15.00;;;;;;;11.15;100.00;103663.16;5263216;28;20421;-77
2023/12/17 03:23:27;;;;;;;18.45;15.45;;;;;;;11.15;100.00;103663.16;5270496;28;20034;-77
2023/12/17 03:25:59;;;;;;;15.90;14.32;;;;;;;11.14;100.00;103650.97;5271338;28;20047;-77
2023/12/17 03:28:31;;;;;;;15.77;14.18;;;;;;;11.17;100.00;103653.44;5260318;28;20037;-77
2023/12/17 03:31:03;;;;;;;14.98;13.05;;;;;;;11.15;100.00;103639.53;5261104;28;20397;-77
2023/12/17 03:33:35;;;;;;;14.93;12.77;;;;;;;11.16;100.00;103638.59;5267411;28;20143;-77
2023/12/17 03:36:07;;;;;;;14.40;12.90;;;;;;;11.12;100.00;103640.50;5262745;28;20425;-77
2023/12/17 03:38:39;;;;;;;15.20;13.00;;;;;;;11.13;100.00;103642.19;5241506;28;20041;-77
2023/12/17 03:41:26;;;;;;;15.48;12.57;;;;;;;11.27;100.00;103636.38;5269347;28;20028;-77
2023/12/17 03:43:58;;;;;;;13.82;12.50;;;;;;;11.11;100.00;103641.44;5261440;28;20051;-77
2023/12/17 03:46:29;;;;;;;13.27;11.98;;;;;;;11.11;100.00;103637.97;5266451;28;20044;-77
2023/12/17 03:49:01;;;;;;;12.13;10.73;;;;;;;11.09;100.00;103638.00;5265969;28;20029;-77
2023/12/17 03:51:33;;;;;;;12.63;11.32;;;;;;;11.04;100.00;103634.72;5265995;28;20032;-77
2023/12/17 03:54:05;;;;;;;11.60;10.50;;;;;;;11.10;100.00;103631.88;5263516;28;20028;-77
2023/12/17 03:56:37;;;;;;;13.73;11.00;;;;;;;11.07;100.00;103634.63;5268618;28;20467;-77
2023/12/17 03:59:09;;;;;;;11.80;10.27;;;;;;;11.10;100.00;103628.34;5270172;28;20051;-77
2023/12/17 04:01:46;;;;;;;11.35;10.23;;;;;;;11.13;100.00;103623.84;5261585;28;20028;-77
2023/12/17 04:04:18;;;;;;;12.02;10.55;;;;;;;11.04;100.00;103628.63;5266971;28;20032;-77
2023/12/17 04:06:50;;;;;;;11.48;10.27;;;;;;;11.02;100.00;103618.19;5265954;28;20500;-77
2023/12/17 04:09:21;;;;;;;11.00;10.00;;;;;;;10.97;100.00;103609.69;5262637;28;20028;-77
2023/12/17 04:11:53;;;;;;;12.75;10.63;;;;;;;10.94;100.00;103609.78;5261295;28;20043;-77
2023/12/17 04:14:25;;;;;;;11.27;10.10;;;;;;;10.98;100.00;103614.00;5270092;28;20041;-77
2023/12/17 04:16:57;;;;;;;12.00;10.48;;;;;;;10.98;100.00;103613.16;5262415;28;20539;-77
2023/12/17 04:19:30;;;;;;;11.73;10.52;;;;;;;10.92;100.00;103611.66;5265475;28;20031;-77
2023/12/17 04:22:05;;;;;;;13.23;10.35;;;;;;;11.01;100.00;103613.88;5270013;28;20025;-77
2023/12/17 04:24:37;;;;;;;12.15;10.10;;;;;;;10.89;100.00;103623.13;5266990;28;20776;-77
2023/12/17 04:27:09;;;;;;;11.38;10.18;;;;;;;10.88;100.00;103616.16;5261515;28;20064;-77
2023/12/17 04:29:41;;;;;;;12.43;10.48;;;;;;;10.90;100.00;103613.47;5271180;28;20029;-77
2023/12/17 04:32:13;;;;;;;12.68;11.25;;;;;;;10.86;100.00;103598.78;5260053;28;20051;-77
2023/12/17 04:34:45;;;;;;;13.10;11.38;;;;;;;10.85;100.00;103597.09;5266604;28;20117;-77
2023/12/17 04:37:16;;;;;;;13.10;11.02;;;;;;;10.90;100.00;103598.59;5264136;28;20033;-77
2023/12/17 04:39:49;;;;;;;12.30;10.95;;;;;;;10.88;100.00;103596.97;5270029;28;20039;-78
2023/12/17 04:42:21;;;;;;;11.90;10.30;;;;;;;10.91;100.00;103605.56;5262554;28;20032;-77
2023/12/17 04:44:53;;;;;;;13.13;11.65;;;;;;;10.85;100.00;103612.81;5262701;28;20509;-78
2023/12/17 04:47:24;;;;;;;13.95;11.57;;;;;;;10.85;100.00;103612.81;5265126;28;20037;-78
2023/12/17 04:49:56;;;;;;;14.15;11.70;;;;;;;10.85;100.00;103604.94;5258752;28;20033;-78
2023/12/17 04:52:28;;;;;;;13.63;12.07;;;;;;;10.84;100.00;103616.38;5260671;28;20605;-77
2023/12/17 04:55:00;;;;;;;14.00;11.00;;;;;;;10.86;100.00;103604.88;5260729;28;20398;-77
2023/12/17 04:57:32;;;;;;;13.25;11.85;;;;;;;10.79;100.00;103597.31;5265303;28;20032;-78
2023/12/17 05:00:05;;;;;;;12.60;11.40;;;;;;;10.82;100.00;103600.69;5264149;28;20021;-77
2023/12/17 05:02:37;;;;;;;12.75;11.45;;;;;;;10.84;100.00;103601.47;5263551;28;20521;-77
2023/12/17 05:05:09;;;;;;;13.65;11.88;;;;;;;10.87;100.00;103605.72;5262167;28;20037;-78
2023/12/17 05:07:41;;;;;;;12.95;11.52;;;;;;;10.78;100.00;103603.50;5260897;28;20025;-78
2023/12/17 05:10:13;;;;;;;15.38;12.38;;;;;;;10.79;100.00;103606.03;5261669;28;20032;-78
2023/12/17 05:12:45;;;;;;;13.32;11.93;;;;;;;10.77;100.00;103594.78;5264341;28;20086;-78
2023/12/17 05:15:17;;;;;;;14.68;12.80;;;;;;;10.78;100.00;103586.00;5265565;28;20039;-78
2023/12/17 05:17:49;;;;;;;14.07;11.80;;;;;;;10.78;100.00;103599.09;5261003;28;20036;-77
2023/12/17 05:20:21;;;;;;;14.40;12.88;;;;;;;10.78;100.00;103600.88;5259313;28;20028;-78
2023/12/17 05:22:53;;;;;;;15.82;13.35;;;;;;;10.76;100.00;103600.06;5263602;28;20531;-78
2023/12/17 05:25:24;;;;;;;14.38;12.85;;;;;;;10.74;100.00;103597.53;5257477;28;20043;-77
2023/12/17 05:27:56;;;;;;;15.75;13.63;;;;;;;10.74;100.00;103599.31;5262686;28;20036;-78
2023/12/17 05:30:28;;;;;;;13.90;12.50;;;;;;;10.73;100.00;103594.97;5265810;28;20394;-77
2023/12/17 05:33:00;;;;;;;15.50;13.10;;;;;;;10.71;100.00;103592.41;5259102;28;20025;-78
2023/12/17 05:35:32;;;;;;;15.63;13.35;;;;;;;10.74;100.00;103594.06;5267146;28;20045;-78
2023/12/17 05:38:04;;;;;;;14.15;12.75;;;;;;;10.73;100.00;103600.22;5271925;28;20032;-77
2023/12/17 05:40:36;;;;;;;14.25;12.75;;;;;;;10.68;100.00;103605.63;5260596;28;20376;-78
2023/12/17 05:43:08;;;;;;;14.60;13.05;;;;;;;10.67;100.00;103601.31;5266093;28;20097;-77
2023/12/17 05:45:40;;;;;;;17.10;13.30;;;;;;;10.73;100.00;103600.22;5266425;28;20024;-78
2023/12/17 05:48:11;;;;;;;14.73;12.95;;;;;;;10.72;100.00;103607.25;5265520;28;20284;-78
2023/12/17 05:50:46;;;;;;;13.90;12.45;;;;;;;10.72;100.00;103596.75;5266598;28;20047;-78
2023/12/17 05:53:18;;;;;;;13.60;12.20;;;;;;;10.71;100.00;103600.28;5265624;28;20025;-78
2023/12/17 05:55:51;;;;;;;12.73;11.38;;;;;;;10.67;100.00;103599.53;5265113;28;20042;-77
2023/12/17 05:58:23;;;;;;;12.68;11.38;;;;;;;10.66;100.00;103587.34;5261493;28;20017;-78
2023/12/17 06:00:56;;;;;;;13.90;10.90;;;;;;;10.67;100.00;103589.06;5265845;28;20032;-78
2023/12/17 06:03:28;;;;;;;12.10;10.15;;;;;;;10.68;100.00;103585.53;5265163;28;20509;-78
2023/12/17 06:06:00;;;;;;;11.77;10.23;;;;;;;10.65;100.00;103580.41;5266111;28;20047;-77
2023/12/17 06:08:32;;;;;;;10.88;9.73;;;;;;;10.61;100.00;103584.09;5262487;28;20033;-77
2023/12/17 06:11:04;;;;;;;10.30;9.15;;;;;;;10.56;100.00;103590.41;5269824;28;20036;-78
2023/12/17 06:13:36;;;;;;;9.48;8.48;;;;;;;10.58;100.00;103591.22;5262287;28;20044;-78
2023/12/17 06:16:08;;;;;;;9.65;8.63;;;;;;;10.61;100.00;103591.09;5273131;28;20043;-78
2023/12/17 06:18:41;;;;;;;8.68;7.78;;;;;;;10.62;100.00;103583.16;5263117;28;20041;-78
2023/12/17 06:21:23;;;;;;;9.25;8.27;;;;;;;10.78;100.00;103596.47;5262843;28;20059;-77
2023/12/17 06:23:57;;;;;;;9.15;7.88;;;;;;;10.61;100.00;103597.19;5263264;28;20044;-77
2023/12/17 06:26:30;;;;;;;9.50;8.13;;;;;;;10.56;100.00;103588.63;5263440;28;20475;-78
2023/12/17 06:29:02;;;;;;;8.83;7.93;;;;;;;10.64;100.00;103602.28;5269959;28;20040;-77
2023/12/17 06:31:34;;;;;;;8.73;7.82;;;;;;;10.57;100.00;103589.50;5268552;28;20450;-78
2023/12/17 06:34:06;;;;;;;8.95;8.02;;;;;;;10.55;100.00;103594.81;5263956;28;20023;-78
2023/12/17 06:36:38;;;;;;;9.32;7.97;;;;;;;10.54;100.00;103592.25;5264456;28;20490;-78
2023/12/17 06:39:10;;;;;;;9.30;8.30;;;;;;;10.58;100.00;103592.06;5262858;28;20033;-78
2023/12/17 06:41:45;;;;;;;10.07;8.57;;;;;;;10.56;100.00;103583.41;5263437;28;20056;-77
2023/12/17 06:44:17;;;;;;;8.75;7.78;;;;;;;10.62;100.00;103596.25;5260656;28;20048;-78
2023/12/17 06:46:49;;;;;;;9.45;8.55;;;;;;;10.66;100.00;103602.25;5266897;28;20024;-77
2023/12/17 06:49:21;;;;;;;9.48;8.57;;;;;;;10.63;100.00;103597.97;5267647;28;20045;-77
2023/12/17 06:51:53;;;;;;;10.55;9.43;;;;;;;10.56;100.00;103587.78;5265830;28;20040;-78
2023/12/17 06:54:24;;;;;;;12.20;9.77;;;;;;;10.63;100.00;103591.88;5267018;28;20029;-78
2023/12/17 06:56:56;;;;;;;13.52;9.15;;;;;;;10.63;100.00;103594.50;5263374;28;20036;-77
2023/12/17 06:59:28;;;;;;;12.52;11.23;;;;;;;10.60;100.00;103600.72;5258624;28;20025;-77
2023/12/17 07:02:00;;;;;;;12.32;10.68;;;;;;;10.61;100.00;103593.72;5266026;28;20029;-78
2023/12/17 07:04:32;;;;;;;12.50;11.18;;;;;;;10.55;100.00;103584.31;5267834;28;20078;-77
2023/12/17 07:07:04;;;;;;;11.73;10.52;;;;;;;10.55;100.00;103578.22;5261636;28;20028;-77
2023/12/17 07:09:36;;;;;;;12.25;10.95;;;;;;;10.46;100.00;103582.94;5262622;28;20036;-77
2023/12/17 07:12:09;;;;;;;11.02;9.82;;;;;;;10.45;100.00;103580.34;5258777;28;20398;-77
2023/12/17 07:14:40;;;;;;;10.50;9.45;;;;;;;10.47;100.00;103587.25;5261470;28;20035;-77
2023/12/17 07:17:12;;;;;;;11.02;9.93;;;;;;;10.46;100.00;103589.94;5264523;28;20420;-78
2023/12/17 07:19:44;;;;;;;11.18;9.73;;;;;;;10.42;100.00;103583.97;5263736;28;20024;-78
2023/12/17 07:22:22;;;;;;;9.80;8.80;;;;;;;10.43;100.00;103584.81;5267059;28;20025;-78
2023/12/17 07:24:53;;;;;;;10.55;9.45;;;;;;;10.46;100.00;103589.94;5260301;28;20036;-78
2023/12/17 07:27:25;;;;;;;11.52;9.63;;;;;;;10.48;100.00;103598.59;5266256;28;20048;-78
2023/12/17 07:29:57;;;;;;;10.32;9.23;;;;;;;10.44;100.00;103589.16;5269524;28;20044;-78
2023/12/17 07:32:29;;;;;;;10.65;9.55;;;;;;;10.48;100.00;103588.09;5265117;28;20029;-78
2023/12/17 07:35:03;;;;;;;11.10;9.80;;;;;;;10.45;100.00;103585.59;5263762;28;20043;-78
2023/12/17 07:37:35;;;;;;;11.30;10.10;;;;;;;10.40;100.00;103588.41;5262353;28;20059;-78
2023/12/17 07:40:07;;;;;;;10.80;9.57;;;;;;;10.46;100.00;103601.28;5262758;28;20384;-78
2023/12/17 07:42:40;;;;;;;10.93;9.73;;;;;;;10.35;100.00;103602.63;5263252;28;20032;-78
2023/12/17 07:45:12;;;;;;;11.73;10.52;;;;;;;10.40;100.00;103608.53;5270938;28;20031;-77
2023/12/17 07:47:44;;;;;;;12.10;10.32;;;;;;;10.37;100.00;103600.78;5259604;28;20056;-78
2023/12/17 07:50:16;;;;;;;11.43;10.05;;;;;;;10.33;100.00;103605.28;5256076;28;20047;-78
2023/12/17 07:52:48;;;;;;;10.57;9.38;;;;;;;10.36;100.00;103609.56;5259375;28;20033;-78
2023/12/17 07:55:20;;;;;;;10.00;9.00;;;;;;;10.27;100.00;103602.94;5256008;28;20032;-78
2023/12/17 07:57:52;;;;;;;11.13;10.02;;;;;;;10.33;100.00;103605.28;5253208;28;20076;-78
2023/12/17 08:00:24;;;;;;;11.60;8.57;;;;;;;10.31;100.00;103608.91;5258207;28;20060;-78
2023/12/17 08:02:56;;;;;;;9.65;8.65;;;;;;;10.21;100.00;103603.13;5255755;28;20112;-78
2023/12/17 08:05:28;;;;;;;9.38;8.40;;;;;;;10.22;100.00;103613.53;5263382;28;20039;-78
2023/12/17 08:08:01;;;;;;;9.75;8.75;;;;;;;10.18;100.00;103621.59;5266301;28;20061;-78
2023/12/17 08:10:33;;;;;;;9.52;7.72;;;;;;;10.19;100.00;103612.81;5260886;28;20285;-78
2023/12/17 08:13:04;;;;;;;8.75;7.93;;;;;;;10.17;100.00;103619.88;5258686;28;20402;-78
2023/12/17 08:15:36;;;;;;;8.48;7.57;;;;;;;10.18;100.00;103609.34;5263239;28;20029;-78
2023/12/17 08:18:08;;;;;;;8.43;7.60;;;;;;;10.17;100.00;103620.72;5259865;28;20129;-78
2023/12/17 08:20:40;;;;;;;9.32;8.13;;;;;;;10.19;100.00;103624.16;5260683;28;20028;-78
2023/12/17 08:23:12;;;;;;;9.93;8.93;;;;;;;10.05;100.00;103597.63;5259774;28;20044;-78
2023/12/17 08:25:44;;;;;;;9.65;8.65;;;;;;;10.08;100.00;103604.53;5260869;28;20497;-78
2023/12/17 08:28:17;;;;;;;9.88;8.88;;;;;;;10.09;100.00;103611.47;5260824;28;20413;-78
2023/12/17 08:30:51;;;;;;;9.73;8.73;;;;;;;10.15;100.00;103613.84;5258981;28;20858;-78
2023/12/17 08:33:23;;;;;;;10.50;8.77;;;;;;;9.98;100.00;103623.19;5265298;28;20043;-78
2023/12/17 08:35:55;;;;;;;10.60;9.52;;;;;;;9.98;100.00;103620.59;5262187;28;20028;-78
2023/12/17 08:38:27;;;;;;;9.60;8.23;;;;;;;9.98;100.00;103620.59;5262444;28;20028;-78
2023/12/17 08:41:00;;;;;;;9.85;8.85;;;;;;;10.04;100.00;103629.09;5258565;28;20033;-78
2023/12/17 08:43:32;;;;;;;10.40;9.32;;;;;;;10.05;100.00;103618.59;5263225;28;20039;-77
2023/12/17 08:46:04;;;;;;;10.52;9.52;;;;;;;10.01;100.00;103634.50;5263261;28;21016;-77
2023/12/17 08:48:36;;;;;;;10.38;9.32;;;;;;;9.97;100.00;103631.97;5267545;28;20025;-77
2023/12/17 08:51:08;;;;;;;10.32;9.23;;;;;;;9.97;100.00;103631.13;5268327;28;20104;-77
2023/12/17 08:53:41;;;;;;;11.40;10.07;;;;;;;9.90;100.00;103627.88;5267231;28;20108;-77
2023/12/17 08:56:13;;;;;;;10.43;9.32;;;;;;;9.91;100.00;103633.97;5269857;28;20029;-77
2023/12/17 08:58:46;;;;;;;9.90;8.85;;;;;;;9.87;100.00;103632.38;5269488;28;20033;-77
2023/12/17 09:01:18;;;;;;;9.70;8.70;;;;;;;9.81;100.00;103625.63;5264066;28;20703;-77
2023/12/17 09:03:50;;;;;;;10.43;9.32;;;;;;;9.82;100.00;103632.56;5260862;28;20020;-77
2023/12/17 09:06:22;;;;;;;10.07;9.00;;;;;;;9.86;100.00;103628.91;5259195;28;20219;-77
2023/12/17 09:08:54;;;;;;;11.98;10.75;;;;;;;9.80;100.00;103626.50;5266567;28;20028;-77
2023/12/17 09:11:33;;;;;;;11.88;10.27;;;;;;;9.80;100.00;103625.66;5254688;28;20033;-77
2023/12/17 09:14:07;;;;;;;12.48;10.80;;;;;;;9.81;100.00;103628.25;5263627;28;20040;-77
2023/12/17 09:16:38;;;;;;;12.45;9.93;;;;;;;9.80;100.00;103620.41;5266968;28;20464;-77
2023/12/17 09:19:12;;;;;;;14.18;11.20;;;;;;;9.72;100.00;103628.56;5266072;28;20384;-77
2023/12/17 09:21:44;;;;;;;14.10;11.38;;;;;;;9.70;100.00;103625.16;5246962;28;20044;-77
2023/12/17 09:24:16;;;;;;;18.00;11.63;;;;;;;9.67;100.00;103633.13;5257563;28;20470;-77
2023/12/17 09:26:48;;;;;;;13.93;12.32;;;;;;;9.62;100.00;103637.66;5264390;28;20283;-77
2023/12/17 09:29:20;;;;;;;14.63;11.75;;;;;;;9.58;100.00;103636.06;5259684;28;20039;-77
2023/12/17 09:31:52;;;;;;;16.13;11.95;;;;;;;9.57;100.00;103629.97;5264066;28;20020;-77
2023/12/17 09:34:24;;;;;;;16.38;11.93;;;;;;;9.57;100.00;103626.50;5272820;28;20063;-77
2023/12/17 09:36:56;;;;;;;15.93;13.18;;;;;;;9.59;100.00;103637.78;5265317;28;20032;-77
2023/12/17 09:39:28;;;;;;;16.02;12.43;;;;;;;9.57;100.00;103629.13;5267008;28;20135;-77
2023/12/17 09:42:00;;;;;;;15.85;13.02;;;;;;;9.55;100.00;103631.81;5262755;28;20058;-77
2023/12/17 09:44:32;;;;;;;15.23;12.88;;;;;;;9.56;100.00;103643.13;5262086;28;20147;-77
2023/12/17 09:47:04;;;;;;;14.90;13.03;;;;;;;9.58;100.00;103630.81;5263363;28;20024;-77
2023/12/17 09:49:36;;;;;;;15.23;13.32;;;;;;;9.54;100.00;103640.53;5262949;28;20037;-77
2023/12/17 09:52:12;;;;;;;15.35;13.20;;;;;;;9.58;100.00;103630.81;5245303;28;20056;-77
2023/12/17 09:54:48;;;;;;;16.42;12.98;;;;;;;9.55;100.00;103626.56;5259618;28;20035;-77
2023/12/17 09:57:20;;;;;;;16.77;14.00;;;;;;;9.47;100.00;103645.16;5264733;28;20024;-77
2023/12/17 09:59:52;;;;;;;15.30;12.60;;;;;;;9.52;100.00;103642.38;5260083;28;20393;-78
2023/12/17 10:02:25;;;;;;;18.50;13.68;;;;;;;9.42;100.00;103638.38;5264773;28;20035;-77
2023/12/17 10:04:57;;;;;;;17.25;14.05;;;;;;;9.38;100.00;103645.47;5257921;28;20041;-77
2023/12/17 10:07:30;;;;;;;16.97;14.53;;;;;;;9.43;100.00;103633.09;5258375;28;20052;-77
2023/12/17 10:10:03;;;;;;;18.17;14.60;;;;;;;9.33;100.00;103633.47;5261868;28;20036;-77
2023/12/17 10:12:35;;;;;;;18.98;15.00;;;;;;;9.35;100.00;103647.34;5264078;28;20029;-77
2023/12/17 10:15:09;;;;;;;18.90;14.82;;;;;;;9.44;100.00;103644.41;5242128;28;20510;-77
2023/12/17 10:17:41;;;;;;;18.02;14.35;;;;;;;9.46;100.00;103643.44;5261047;28;20037;-77
2023/12/17 10:20:19;;;;;;;18.67;15.38;;;;;;;9.59;100.00;103638.63;5264354;28;20035;-77
2023/12/17 10:22:59;;;;;;;19.70;15.25;;;;;;;9.63;100.00;103649.84;5262390;28;20043;-77
2023/12/17 10:25:31;;;;;;;21.52;15.20;;;;;;;9.54;100.00;103650.16;5264505;28;20424;-77
2023/12/17 10:28:03;;;;;;;25.65;16.48;;;;;;;9.55;100.00;103649.28;5263488;28;20040;-77
2023/12/17 10:30:36;;;;;;;22.67;18.35;;;;;;;9.58;100.00;103636.06;5244225;28;20052;-77
2023/12/17 10:33:16;;;;;;;21.20;17.23;;;;;;;9.66;100.00;103631.38;5260390;28;20040;-78
2023/12/17 10:35:48;;;;;;;25.05;17.55;;;;;;;9.57;100.00;103629.97;5261867;28;20529;-77
2023/12/17 10:38:22;;;;;;;21.20;18.03;;;;;;;9.56;100.00;103628.28;5267142;28;20035;-77
2023/12/17 10:40:56;;;;;;;24.33;17.27;;;;;;;9.55;100.00;103621.34;5258352;28;20278;-77
2023/12/17 10:43:28;;;;;;;;;;;;;;;10.24;100.00;103616.13;5267155;28;20033;-77
2023/12/17 10:46:00;;;;;;;24.38;17.67;;;;;;;9.75;100.00;103613.59;5265842;28;19923;-77
2023/12/17 10:48:32;;;;;;;22.55;17.88;;;;;;;9.80;100.00;103612.56;5260712;28;20040;-77
2023/12/17 10:51:11;;;;;;;22.73;17.25;;;;;;;9.92;100.00;103609.47;5262466;28;20033;-77
2023/12/17 10:53:43;;;;;;;24.50;17.40;;;;;;;9.88;100.00;103602.66;5249325;28;20075;-77
2023/12/17 10:56:17;;;;;;;23.83;16.95;;;;;;;9.96;100.00;103601.47;5259917;28;20029;-77
2023/12/17 10:58:49;;;;;;;27.25;17.13;;;;;;;10.01;100.00;103597.81;5266087;28;20159;-77
2023/12/17 11:01:22;;;;;;;20.92;15.63;;;;;;;10.05;100.00;103602.88;5261712;28;20032;-77
2023/12/17 11:03:54;;;;;;;22.10;15.50;;;;;;;10.11;100.00;103594.75;5265179;28;20081;-77
2023/12/17 11:06:26;;;;;;;22.33;16.08;;;;;;;10.12;100.00;103586.00;5264454;28;20036;-77
2023/12/17 11:08:58;;;;;;;20.42;15.15;;;;;;;10.10;100.00;103579.13;5260335;28;20773;-77
2023/12/17 11:11:32;;;;;;;20.63;13.65;;;;;;;10.15;100.00;103580.66;5262437;28;20041;-77
2023/12/17 11:14:03;;;;;;;;;;;;;;;10.86;100.00;103576.03;5264989;28;20095;-77
2023/12/17 11:16:35;;;;;;;20.67;13.65;;;;;;;10.35;100.00;103569.41;5264086;28;19931;-77
2023/12/17 11:19:08;;;;;;;19.60;13.30;;;;;;;10.40;100.00;103567.44;5262265;28;20029;-77
2023/12/17 11:21:41;;;;;;;24.38;13.35;;;;;;;10.43;100.00;103563.88;5267841;28;20051;-77
2023/12/17 11:24:13;;;;;;;19.58;13.15;;;;;;;10.43;100.00;103562.09;5264703;28;20029;-77
2023/12/17 11:26:48;;;;;;;20.58;13.02;;;;;;;10.45;100.00;103552.41;5243211;28;20056;-77
2023/12/17 11:29:33;;;;;;;19.23;12.40;;;;;;;10.60;100.00;103547.44;5264702;28;20032;-78